sensor_id;sensor_type;location;lat;lon;timestamp;noise_LAeq;noise_LA_min;noise_LA_max;noise_LA01;noise_LA95
186;Laerm;55473;48.800;9.002;2024-01-25T00:01:47;42.44;35.62;58.06;;
186;Laerm;55473;48.800;9.002;2024-01-25T00:04:13;39.83;35.86;48.87;;
186;Laerm;55473;48.800;9.002;2024-01-25T00:06:39;44.54;36.76;61.18;;
186;Laerm;55473;48.800;9.002;2024-01-25T00:09:05;39.94;36.12;57.80;;
186;Laerm;55473;48.800;9.002;2024-01-25T00:11:31;41.24;35.45;58.39;;
186;Laerm;55473;48.800;9.002;2024-01-25T00:13:58;39.32;35.40;54.73;;
186;Laerm;55473;48.800;9.002;2024-01-25T00:16:24;41.08;35.25;56.89;;
186;Laerm;55473;48.800;9.002;2024-01-25T00:18:49;42.25;35.93;60.79;;
186;Laerm;55473;48.800;9.002;2024-01-25T00:21:16;38.05;35.31;43.12;;
186;Laerm;55473;48.800;9.002;2024-01-25T00:23:41;37.44;35.27;43.38;;
186;Laerm;55473;48.800;9.002;2024-01-25T00:26:07;36.96;34.93;43.41;;
186;Laerm;55473;48.800;9.002;2024-01-25T00:28:33;37.77;35.55;41.51;;
186;Laerm;55473;48.800;9.002;2024-01-25T00:30:59;39.17;35.50;51.74;;
186;Laerm;55473;48.800;9.002;2024-01-25T00:33:25;37.88;34.82;44.20;;
186;Laerm;55473;48.800;9.002;2024-01-25T00:35:51;37.03;34.92;40.79;;
186;Laerm;55473;48.800;9.002;2024-01-25T00:38:17;37.21;34.98;42.36;;
186;Laerm;55473;48.800;9.002;2024-01-25T00:40:43;38.17;35.23;50.17;;
186;Laerm;55473;48.800;9.002;2024-01-25T00:43:09;39.82;35.46;56.57;;
186;Laerm;55473;48.800;9.002;2024-01-25T00:45:36;39.42;35.18;53.76;;
186;Laerm;55473;48.800;9.002;2024-01-25T00:48:02;38.19;35.27;49.42;;
186;Laerm;55473;48.800;9.002;2024-01-25T00:50:28;37.81;35.14;47.83;;
186;Laerm;55473;48.800;9.002;2024-01-25T00:52:54;42.29;35.94;55.82;;
186;Laerm;55473;48.800;9.002;2024-01-25T00:55:20;37.68;35.03;52.79;;
186;Laerm;55473;48.800;9.002;2024-01-25T00:58:05;37.41;35.08;40.67;;
186;Laerm;55473;48.800;9.002;2024-01-25T01:00:31;37.14;34.95;41.74;;
186;Laerm;55473;48.800;9.002;2024-01-25T01:02:58;45.23;35.74;63.63;;
186;Laerm;55473;48.800;9.002;2024-01-25T01:05:27;40.29;35.30;57.21;;
186;Laerm;55473;48.800;9.002;2024-01-25T01:07:53;39.35;35.21;47.10;;
186;Laerm;55473;48.800;9.002;2024-01-25T01:10:19;37.33;35.02;41.61;;
186;Laerm;55473;48.800;9.002;2024-01-25T01:12:45;41.10;36.20;62.32;;
186;Laerm;55473;48.800;9.002;2024-01-25T01:15:10;40.24;36.07;52.69;;
186;Laerm;55473;48.800;9.002;2024-01-25T01:17:36;40.75;34.80;57.37;;
186;Laerm;55473;48.800;9.002;2024-01-25T01:20:02;40.86;34.66;57.25;;
186;Laerm;55473;48.800;9.002;2024-01-25T01:22:28;43.10;35.18;61.40;;
186;Laerm;55473;48.800;9.002;2024-01-25T01:24:54;38.18;35.04;48.03;;
186;Laerm;55473;48.800;9.002;2024-01-25T01:27:21;39.59;35.73;57.55;;
186;Laerm;55473;48.800;9.002;2024-01-25T01:29:47;44.42;36.81;64.30;;
186;Laerm;55473;48.800;9.002;2024-01-25T01:32:13;39.33;35.17;49.56;;
186;Laerm;55473;48.800;9.002;2024-01-25T01:34:39;39.62;35.28;53.78;;
186;Laerm;55473;48.800;9.002;2024-01-25T01:37:04;37.74;34.67;41.68;;
186;Laerm;55473;48.800;9.002;2024-01-25T01:39:30;38.45;35.31;45.67;;
186;Laerm;55473;48.800;9.002;2024-01-25T01:41:56;40.62;35.72;52.44;;
186;Laerm;55473;48.800;9.002;2024-01-25T01:44:22;42.56;35.67;61.84;;
186;Laerm;55473;48.800;9.002;2024-01-25T01:46:48;37.49;35.08;47.23;;
186;Laerm;55473;48.800;9.002;2024-01-25T01:49:14;38.43;35.11;45.76;;
186;Laerm;55473;48.800;9.002;2024-01-25T01:51:41;41.18;35.89;57.87;;
186;Laerm;55473;48.800;9.002;2024-01-25T01:54:10;38.04;35.14;48.82;;
186;Laerm;55473;48.800;9.002;2024-01-25T01:56:36;38.25;35.64;42.48;;
186;Laerm;55473;48.800;9.002;2024-01-25T01:59:05;40.52;36.41;51.37;;
186;Laerm;55473;48.800;9.002;2024-01-25T02:01:32;38.14;34.89;45.47;;
186;Laerm;55473;48.800;9.002;2024-01-25T02:03:58;37.11;35.13;40.47;;
186;Laerm;55473;48.800;9.002;2024-01-25T02:06:24;38.64;35.26;49.37;;
186;Laerm;55473;48.800;9.002;2024-01-25T02:08:51;38.42;35.19;52.34;;
186;Laerm;55473;48.800;9.002;2024-01-25T02:11:19;38.68;34.91;52.15;;
186;Laerm;55473;48.800;9.002;2024-01-25T02:13:45;38.58;35.49;52.53;;
186;Laerm;55473;48.800;9.002;2024-01-25T02:16:13;39.49;35.50;60.48;;
186;Laerm;55473;48.800;9.002;2024-01-25T02:18:41;39.51;35.62;53.80;;
186;Laerm;55473;48.800;9.002;2024-01-25T02:21:07;39.57;36.52;49.16;;
186;Laerm;55473;48.800;9.002;2024-01-25T02:23:33;40.15;35.59;55.79;;
186;Laerm;55473;48.800;9.002;2024-01-25T02:25:59;42.50;35.90;58.82;;
186;Laerm;55473;48.800;9.002;2024-01-25T02:28:25;38.30;35.57;44.92;;
186;Laerm;55473;48.800;9.002;2024-01-25T02:30:51;39.11;35.91;46.63;;
186;Laerm;55473;48.800;9.002;2024-01-25T02:33:17;44.53;35.12;63.50;;
186;Laerm;55473;48.800;9.002;2024-01-25T02:35:42;39.82;35.95;48.37;;
186;Laerm;55473;48.800;9.002;2024-01-25T02:38:08;39.37;35.48;49.99;;
186;Laerm;55473;48.800;9.002;2024-01-25T02:40:34;39.74;36.18;56.58;;
186;Laerm;55473;48.800;9.002;2024-01-25T02:43:00;39.13;35.33;49.43;;
186;Laerm;55473;48.800;9.002;2024-01-25T02:45:26;38.21;35.59;47.38;;
186;Laerm;55473;48.800;9.002;2024-01-25T02:47:52;42.01;35.93;55.00;;
186;Laerm;55473;48.800;9.002;2024-01-25T02:50:17;37.57;34.96;41.48;;
186;Laerm;55473;48.800;9.002;2024-01-25T02:52:43;39.52;35.19;48.42;;
186;Laerm;55473;48.800;9.002;2024-01-25T02:55:09;37.58;35.27;41.98;;
186;Laerm;55473;48.800;9.002;2024-01-25T02:57:35;37.95;35.38;41.47;;
186;Laerm;55473;48.800;9.002;2024-01-25T03:00:01;43.82;36.02;56.45;;
186;Laerm;55473;48.800;9.002;2024-01-25T03:02:27;40.37;36.12;50.29;;
186;Laerm;55473;48.800;9.002;2024-01-25T03:04:53;39.97;35.98;54.67;;
186;Laerm;55473;48.800;9.002;2024-01-25T03:07:18;44.50;36.04;59.32;;
186;Laerm;55473;48.800;9.002;2024-01-25T03:09:44;37.69;34.80;43.22;;
186;Laerm;55473;48.800;9.002;2024-01-25T03:12:10;38.31;34.41;44.49;;
186;Laerm;55473;48.800;9.002;2024-01-25T03:14:36;37.26;35.09;42.23;;
186;Laerm;55473;48.800;9.002;2024-01-25T03:17:02;37.50;34.88;43.56;;
186;Laerm;55473;48.800;9.002;2024-01-25T03:19:28;37.80;35.17;44.00;;
186;Laerm;55473;48.800;9.002;2024-01-25T03:21:54;37.81;35.26;43.42;;
186;Laerm;55473;48.800;9.002;2024-01-25T03:24:21;37.77;34.94;45.10;;
186;Laerm;55473;48.800;9.002;2024-01-25T03:26:47;37.30;34.72;43.37;;
186;Laerm;55473;48.800;9.002;2024-01-25T03:29:14;37.02;34.80;40.91;;
186;Laerm;55473;48.800;9.002;2024-01-25T03:31:40;37.28;34.52;45.19;;
186;Laerm;55473;48.800;9.002;2024-01-25T03:34:05;38.17;34.91;44.85;;
186;Laerm;55473;48.800;9.002;2024-01-25T03:36:32;36.93;34.72;40.86;;
186;Laerm;55473;48.800;9.002;2024-01-25T03:38:58;38.27;35.14;53.91;;
186;Laerm;55473;48.800;9.002;2024-01-25T03:41:24;39.11;35.28;46.42;;
186;Laerm;55473;48.800;9.002;2024-01-25T03:43:50;50.91;35.22;62.07;;
186;Laerm;55473;48.800;9.002;2024-01-25T03:46:17;37.03;34.95;47.19;;
186;Laerm;55473;48.800;9.002;2024-01-25T03:48:43;37.57;34.38;51.19;;
186;Laerm;55473;48.800;9.002;2024-01-25T03:51:09;38.10;35.15;42.75;;
186;Laerm;55473;48.800;9.002;2024-01-25T03:53:35;37.59;34.92;42.22;;
186;Laerm;55473;48.800;9.002;2024-01-25T03:56:00;38.15;35.19;46.45;;
186;Laerm;55473;48.800;9.002;2024-01-25T03:58:26;40.15;35.11;49.84;;
186;Laerm;55473;48.800;9.002;2024-01-25T04:00:52;41.22;35.16;54.49;;
186;Laerm;55473;48.800;9.002;2024-01-25T04:03:18;38.10;35.42;42.97;;
186;Laerm;55473;48.800;9.002;2024-01-25T04:05:43;39.08;35.80;44.51;;
186;Laerm;55473;48.800;9.002;2024-01-25T04:08:10;38.37;35.66;42.53;;
186;Laerm;55473;48.800;9.002;2024-01-25T04:10:36;39.06;35.91;45.24;;
186;Laerm;55473;48.800;9.002;2024-01-25T04:13:02;38.49;35.30;45.98;;
186;Laerm;55473;48.800;9.002;2024-01-25T04:15:30;39.34;35.59;48.52;;
186;Laerm;55473;48.800;9.002;2024-01-25T04:17:56;38.81;35.34;47.63;;
186;Laerm;55473;48.800;9.002;2024-01-25T04:20:22;40.60;35.68;50.93;;
186;Laerm;55473;48.800;9.002;2024-01-25T04:22:48;38.75;35.31;44.17;;
186;Laerm;55473;48.800;9.002;2024-01-25T04:25:15;60.39;36.38;75.82;;
186;Laerm;55473;48.800;9.002;2024-01-25T04:27:41;39.11;35.81;45.44;;
186;Laerm;55473;48.800;9.002;2024-01-25T04:30:08;38.36;35.64;44.30;;
186;Laerm;55473;48.800;9.002;2024-01-25T04:32:34;44.57;35.64;54.72;;
186;Laerm;55473;48.800;9.002;2024-01-25T04:35:00;39.84;36.65;46.54;;
186;Laerm;55473;48.800;9.002;2024-01-25T04:37:26;39.73;36.04;46.24;;
186;Laerm;55473;48.800;9.002;2024-01-25T04:39:52;39.83;36.10;53.97;;
186;Laerm;55473;48.800;9.002;2024-01-25T04:42:18;38.98;35.97;48.18;;
186;Laerm;55473;48.800;9.002;2024-01-25T04:44:44;40.11;36.00;51.58;;
186;Laerm;55473;48.800;9.002;2024-01-25T04:47:10;40.96;37.05;46.94;;
186;Laerm;55473;48.800;9.002;2024-01-25T04:49:36;40.35;36.37;46.99;;
186;Laerm;55473;48.800;9.002;2024-01-25T04:52:02;40.94;36.79;48.07;;
186;Laerm;55473;48.800;9.002;2024-01-25T04:54:28;41.18;37.26;49.19;;
186;Laerm;55473;48.800;9.002;2024-01-25T04:56:54;41.82;36.14;49.68;;
186;Laerm;55473;48.800;9.002;2024-01-25T04:59:20;44.38;37.48;57.13;;
186;Laerm;55473;48.800;9.002;2024-01-25T05:01:46;39.97;36.49;45.03;;
186;Laerm;55473;48.800;9.002;2024-01-25T05:04:12;42.94;37.32;53.82;;
186;Laerm;55473;48.800;9.002;2024-01-25T05:06:38;46.73;36.20;60.05;;
186;Laerm;55473;48.800;9.002;2024-01-25T05:09:04;42.07;37.33;49.34;;
186;Laerm;55473;48.800;9.002;2024-01-25T05:11:29;41.14;37.63;48.46;;
186;Laerm;55473;48.800;9.002;2024-01-25T05:13:55;40.56;36.45;48.12;;
186;Laerm;55473;48.800;9.002;2024-01-25T05:16:21;41.26;37.03;47.02;;
186;Laerm;55473;48.800;9.002;2024-01-25T05:18:47;40.71;37.40;45.82;;
186;Laerm;55473;48.800;9.002;2024-01-25T05:21:12;42.99;37.87;49.83;;
186;Laerm;55473;48.800;9.002;2024-01-25T05:23:38;41.29;37.52;50.03;;
186;Laerm;55473;48.800;9.002;2024-01-25T05:26:06;41.58;38.23;47.13;;
186;Laerm;55473;48.800;9.002;2024-01-25T05:28:32;42.31;38.46;46.87;;
186;Laerm;55473;48.800;9.002;2024-01-25T05:30:57;42.41;38.29;50.99;;
186;Laerm;55473;48.800;9.002;2024-01-25T05:33:23;46.34;38.26;59.98;;
186;Laerm;55473;48.800;9.002;2024-01-25T05:35:49;42.32;37.73;48.28;;
186;Laerm;55473;48.800;9.002;2024-01-25T05:38:15;41.75;37.72;54.96;;
186;Laerm;55473;48.800;9.002;2024-01-25T05:40:42;43.17;38.96;50.37;;
186;Laerm;55473;48.800;9.002;2024-01-25T05:43:08;43.68;39.15;55.04;;
186;Laerm;55473;48.800;9.002;2024-01-25T05:45:34;50.06;39.19;61.78;;
186;Laerm;55473;48.800;9.002;2024-01-25T05:47:59;45.86;38.76;59.41;;
186;Laerm;55473;48.800;9.002;2024-01-25T05:50:25;44.05;39.97;52.50;;
186;Laerm;55473;48.800;9.002;2024-01-25T05:52:51;43.63;39.62;51.86;;
186;Laerm;55473;48.800;9.002;2024-01-25T05:55:17;44.36;39.66;52.48;;
186;Laerm;55473;48.800;9.002;2024-01-25T05:57:43;43.65;40.38;50.07;;
186;Laerm;55473;48.800;9.002;2024-01-25T06:00:11;43.11;38.17;49.93;;
186;Laerm;55473;48.800;9.002;2024-01-25T06:02:39;46.21;41.09;54.83;;
186;Laerm;55473;48.800;9.002;2024-01-25T06:05:04;46.61;40.13;59.92;;
186;Laerm;55473;48.800;9.002;2024-01-25T06:07:30;43.33;39.81;49.64;;
186;Laerm;55473;48.800;9.002;2024-01-25T06:09:56;44.13;40.07;53.86;;
186;Laerm;55473;48.800;9.002;2024-01-25T06:12:22;44.77;40.16;57.27;;
186;Laerm;55473;48.800;9.002;2024-01-25T06:14:48;44.72;39.95;54.76;;
186;Laerm;55473;48.800;9.002;2024-01-25T06:17:14;45.06;41.11;55.78;;
186;Laerm;55473;48.800;9.002;2024-01-25T06:19:40;44.92;40.47;57.41;;
186;Laerm;55473;48.800;9.002;2024-01-25T06:22:05;44.60;40.32;55.50;;
186;Laerm;55473;48.800;9.002;2024-01-25T06:24:32;46.55;40.31;55.52;;
186;Laerm;55473;48.800;9.002;2024-01-25T06:26:57;49.68;41.20;67.84;;
186;Laerm;55473;48.800;9.002;2024-01-25T06:29:23;46.56;41.08;58.91;;
186;Laerm;55473;48.800;9.002;2024-01-25T06:31:49;47.51;42.18;61.90;;
186;Laerm;55473;48.800;9.002;2024-01-25T06:34:15;57.47;41.37;71.02;;
186;Laerm;55473;48.800;9.002;2024-01-25T06:36:41;48.09;42.31;62.52;;
186;Laerm;55473;48.800;9.002;2024-01-25T06:39:06;48.44;42.64;62.42;;
186;Laerm;55473;48.800;9.002;2024-01-25T06:41:33;47.61;41.60;63.42;;
186;Laerm;55473;48.800;9.002;2024-01-25T06:43:59;45.92;41.15;60.04;;
186;Laerm;55473;48.800;9.002;2024-01-25T06:46:25;48.69;40.73;63.78;;
186;Laerm;55473;48.800;9.002;2024-01-25T06:48:51;46.70;41.62;59.38;;
186;Laerm;55473;48.800;9.002;2024-01-25T06:51:17;47.34;41.76;61.62;;
186;Laerm;55473;48.800;9.002;2024-01-25T06:53:43;52.71;40.57;66.43;;
186;Laerm;55473;48.800;9.002;2024-01-25T06:56:09;50.78;41.03;67.60;;
186;Laerm;55473;48.800;9.002;2024-01-25T06:58:35;47.17;41.62;58.45;;
186;Laerm;55473;48.800;9.002;2024-01-25T07:01:01;48.21;41.98;61.97;;
186;Laerm;55473;48.800;9.002;2024-01-25T07:03:26;46.15;41.65;59.70;;
186;Laerm;55473;48.800;9.002;2024-01-25T07:05:52;47.92;41.55;58.78;;
186;Laerm;55473;48.800;9.002;2024-01-25T07:08:18;45.69;40.09;60.77;;
186;Laerm;55473;48.800;9.002;2024-01-25T07:10:45;46.40;41.04;58.16;;
186;Laerm;55473;48.800;9.002;2024-01-25T07:13:11;46.99;41.49;65.48;;
186;Laerm;55473;48.800;9.002;2024-01-25T07:15:36;46.38;41.66;61.53;;
186;Laerm;55473;48.800;9.002;2024-01-25T07:18:03;46.55;41.59;57.38;;
186;Laerm;55473;48.800;9.002;2024-01-25T07:20:29;47.91;41.33;68.01;;
186;Laerm;55473;48.800;9.002;2024-01-25T07:22:55;46.68;41.57;60.85;;
186;Laerm;55473;48.800;9.002;2024-01-25T07:25:21;47.79;41.13;60.62;;
186;Laerm;55473;48.800;9.002;2024-01-25T07:27:47;47.43;40.87;62.80;;
186;Laerm;55473;48.800;9.002;2024-01-25T07:30:15;49.31;40.89;66.00;;
186;Laerm;55473;48.800;9.002;2024-01-25T07:32:41;50.08;42.31;64.23;;
186;Laerm;55473;48.800;9.002;2024-01-25T07:35:08;45.76;40.70;59.13;;
186;Laerm;55473;48.800;9.002;2024-01-25T07:37:36;44.75;39.72;57.31;;
186;Laerm;55473;48.800;9.002;2024-01-25T07:40:02;44.93;39.73;53.52;;
186;Laerm;55473;48.800;9.002;2024-01-25T07:42:32;46.61;41.27;64.85;;
186;Laerm;55473;48.800;9.002;2024-01-25T07:44:58;47.03;40.28;64.34;;
186;Laerm;55473;48.800;9.002;2024-01-25T07:47:24;50.91;40.80;69.84;;
186;Laerm;55473;48.800;9.002;2024-01-25T07:49:50;53.29;41.50;67.96;;
186;Laerm;55473;48.800;9.002;2024-01-25T07:52:16;48.81;41.47;68.48;;
186;Laerm;55473;48.800;9.002;2024-01-25T07:54:41;46.73;41.09;63.70;;
186;Laerm;55473;48.800;9.002;2024-01-25T07:57:07;48.00;41.86;61.87;;
186;Laerm;55473;48.800;9.002;2024-01-25T07:59:33;47.88;41.17;66.79;;
186;Laerm;55473;48.800;9.002;2024-01-25T08:01:59;46.38;42.08;61.08;;
186;Laerm;55473;48.800;9.002;2024-01-25T08:04:24;47.64;42.57;56.14;;
186;Laerm;55473;48.800;9.002;2024-01-25T08:06:52;45.83;41.41;55.41;;
186;Laerm;55473;48.800;9.002;2024-01-25T08:09:18;46.01;40.79;58.89;;
186;Laerm;55473;48.800;9.002;2024-01-25T08:11:44;46.78;40.59;64.35;;
186;Laerm;55473;48.800;9.002;2024-01-25T08:14:10;46.71;40.11;59.54;;
186;Laerm;55473;48.800;9.002;2024-01-25T08:16:37;45.06;40.29;60.45;;
186;Laerm;55473;48.800;9.002;2024-01-25T08:19:03;47.52;39.21;63.81;;
186;Laerm;55473;48.800;9.002;2024-01-25T08:21:30;49.39;40.61;68.24;;
186;Laerm;55473;48.800;9.002;2024-01-25T08:23:55;50.18;40.77;68.66;;
186;Laerm;55473;48.800;9.002;2024-01-25T08:26:21;47.67;40.83;65.80;;
186;Laerm;55473;48.800;9.002;2024-01-25T08:28:47;47.76;39.91;69.05;;
186;Laerm;55473;48.800;9.002;2024-01-25T08:31:13;47.31;39.50;64.45;;
186;Laerm;55473;48.800;9.002;2024-01-25T08:33:39;48.00;39.48;60.84;;
186;Laerm;55473;48.800;9.002;2024-01-25T08:36:16;47.20;40.56;61.31;;
186;Laerm;55473;48.800;9.002;2024-01-25T08:38:42;44.73;39.50;60.92;;
186;Laerm;55473;48.800;9.002;2024-01-25T08:41:08;47.65;39.63;65.82;;
186;Laerm;55473;48.800;9.002;2024-01-25T08:43:34;45.23;39.23;56.01;;
186;Laerm;55473;48.800;9.002;2024-01-25T08:46:00;49.71;39.66;67.00;;
186;Laerm;55473;48.800;9.002;2024-01-25T08:48:27;49.41;38.49;62.26;;
186;Laerm;55473;48.800;9.002;2024-01-25T08:50:53;44.84;39.12;58.34;;
186;Laerm;55473;48.800;9.002;2024-01-25T08:53:20;44.84;38.97;54.70;;
186;Laerm;55473;48.800;9.002;2024-01-25T08:55:55;45.38;39.49;61.03;;
186;Laerm;55473;48.800;9.002;2024-01-25T08:58:21;46.91;39.28;64.29;;
186;Laerm;55473;48.800;9.002;2024-01-25T09:00:47;44.75;38.82;58.77;;
186;Laerm;55473;48.800;9.002;2024-01-25T09:03:17;45.97;39.23;63.48;;
186;Laerm;55473;48.800;9.002;2024-01-25T09:05:43;44.33;38.59;57.59;;
186;Laerm;55473;48.800;9.002;2024-01-25T09:08:12;49.16;43.11;59.97;;
186;Laerm;55473;48.800;9.002;2024-01-25T09:10:40;48.73;43.99;62.22;;
186;Laerm;55473;48.800;9.002;2024-01-25T09:13:06;49.83;42.52;71.09;;
186;Laerm;55473;48.800;9.002;2024-01-25T09:15:32;49.40;43.16;66.60;;
186;Laerm;55473;48.800;9.002;2024-01-25T09:17:58;49.03;42.76;70.18;;
186;Laerm;55473;48.800;9.002;2024-01-25T09:20:23;51.80;39.94;70.50;;
186;Laerm;55473;48.800;9.002;2024-01-25T09:22:49;46.53;39.35;68.39;;
186;Laerm;55473;48.800;9.002;2024-01-25T09:25:15;48.49;39.42;64.43;;
186;Laerm;55473;48.800;9.002;2024-01-25T09:27:41;47.83;42.68;61.22;;
186;Laerm;55473;48.800;9.002;2024-01-25T09:30:07;48.26;43.40;64.36;;
186;Laerm;55473;48.800;9.002;2024-01-25T09:32:33;49.41;39.89;60.84;;
186;Laerm;55473;48.800;9.002;2024-01-25T09:34:59;44.80;37.77;56.73;;
186;Laerm;55473;48.800;9.002;2024-01-25T09:37:25;47.95;38.91;68.67;;
186;Laerm;55473;48.800;9.002;2024-01-25T09:39:51;45.16;38.24;58.32;;
186;Laerm;55473;48.800;9.002;2024-01-25T09:42:18;46.05;38.59;61.41;;
186;Laerm;55473;48.800;9.002;2024-01-25T09:44:44;46.65;38.70;67.68;;
186;Laerm;55473;48.800;9.002;2024-01-25T09:47:11;46.59;39.50;68.08;;
186;Laerm;55473;48.800;9.002;2024-01-25T09:49:38;48.10;41.07;65.09;;
186;Laerm;55473;48.800;9.002;2024-01-25T09:52:05;47.83;43.37;60.65;;
186;Laerm;55473;48.800;9.002;2024-01-25T09:54:35;48.26;42.77;68.31;;
186;Laerm;55473;48.800;9.002;2024-01-25T09:59:39;46.37;39.13;65.62;;
186;Laerm;55473;48.800;9.002;2024-01-25T10:02:05;45.53;38.72;55.98;;
186;Laerm;55473;48.800;9.002;2024-01-25T10:04:31;44.68;39.63;56.11;;
186;Laerm;55473;48.800;9.002;2024-01-25T10:06:56;47.07;39.82;58.58;;
186;Laerm;55473;48.800;9.002;2024-01-25T10:09:23;43.66;37.15;58.63;;
186;Laerm;55473;48.800;9.002;2024-01-25T10:11:49;46.48;36.84;65.55;;
186;Laerm;55473;48.800;9.002;2024-01-25T10:14:15;47.38;37.07;65.35;;
186;Laerm;55473;48.800;9.002;2024-01-25T10:16:41;46.19;38.49;68.49;;
186;Laerm;55473;48.800;9.002;2024-01-25T10:19:07;46.96;39.66;68.19;;
186;Laerm;55473;48.800;9.002;2024-01-25T10:21:36;44.35;38.23;63.52;;
186;Laerm;55473;48.800;9.002;2024-01-25T10:24:02;43.43;37.61;59.24;;
186;Laerm;55473;48.800;9.002;2024-01-25T10:26:29;54.45;37.58;75.69;;
186;Laerm;55473;48.800;9.002;2024-01-25T10:28:55;57.27;39.31;83.19;;
186;Laerm;55473;48.800;9.002;2024-01-25T10:31:24;57.32;37.95;79.98;;
186;Laerm;55473;48.800;9.002;2024-01-25T10:33:53;57.53;39.19;76.39;;
186;Laerm;55473;48.800;9.002;2024-01-25T10:36:21;58.27;38.68;77.00;;
186;Laerm;55473;48.800;9.002;2024-01-25T10:38:54;55.53;38.04;72.50;;
186;Laerm;55473;48.800;9.002;2024-01-25T10:41:20;54.55;37.78;74.51;;
186;Laerm;55473;48.800;9.002;2024-01-25T10:43:47;59.32;38.06;82.61;;
186;Laerm;55473;48.800;9.002;2024-01-25T10:46:14;53.20;38.11;73.70;;
186;Laerm;55473;48.800;9.002;2024-01-25T10:48:41;43.22;37.41;64.73;;
186;Laerm;55473;48.800;9.002;2024-01-25T10:51:09;42.75;37.64;55.53;;
186;Laerm;55473;48.800;9.002;2024-01-25T10:53:37;44.29;37.60;64.55;;
186;Laerm;55473;48.800;9.002;2024-01-25T10:56:04;45.29;37.24;67.08;;
186;Laerm;55473;48.800;9.002;2024-01-25T10:58:32;44.26;37.83;65.34;;
186;Laerm;55473;48.800;9.002;2024-01-25T11:01:01;48.72;38.57;63.27;;
186;Laerm;55473;48.800;9.002;2024-01-25T11:03:29;49.97;39.59;70.54;;
186;Laerm;55473;48.800;9.002;2024-01-25T11:06:08;49.12;38.23;68.28;;
186;Laerm;55473;48.800;9.002;2024-01-25T11:08:35;42.95;36.82;63.10;;
186;Laerm;55473;48.800;9.002;2024-01-25T11:11:10;50.71;37.97;80.56;;
186;Laerm;55473;48.800;9.002;2024-01-25T11:13:40;51.25;38.21;76.71;;
186;Laerm;55473;48.800;9.002;2024-01-25T11:16:16;55.24;38.11;81.83;;
186;Laerm;55473;48.800;9.002;2024-01-25T11:18:51;48.44;38.77;65.43;;
186;Laerm;55473;48.800;9.002;2024-01-25T11:21:42;45.13;37.32;66.00;;
186;Laerm;55473;48.800;9.002;2024-01-25T11:24:19;69.14;38.56;91.97;;
186;Laerm;55473;48.800;9.002;2024-01-25T11:26:46;48.53;38.88;65.15;;
186;Laerm;55473;48.800;9.002;2024-01-25T11:29:16;45.43;38.97;70.34;;
186;Laerm;55473;48.800;9.002;2024-01-25T11:31:47;46.36;38.42;66.81;;
186;Laerm;55473;48.800;9.002;2024-01-25T11:34:16;51.25;39.68;69.98;;
186;Laerm;55473;48.800;9.002;2024-01-25T11:36:44;48.02;37.27;70.61;;
186;Laerm;55473;48.800;9.002;2024-01-25T11:39:15;46.30;37.56;64.84;;
186;Laerm;55473;48.800;9.002;2024-01-25T11:41:43;51.07;38.22;72.90;;
186;Laerm;55473;48.800;9.002;2024-01-25T11:44:11;45.38;38.81;62.31;;
186;Laerm;55473;48.800;9.002;2024-01-25T11:46:37;44.22;38.02;65.20;;
186;Laerm;55473;48.800;9.002;2024-01-25T11:49:02;47.01;38.11;62.95;;
186;Laerm;55473;48.800;9.002;2024-01-25T11:51:28;47.43;38.23;69.16;;
186;Laerm;55473;48.800;9.002;2024-01-25T11:53:54;46.55;37.93;64.25;;
186;Laerm;55473;48.800;9.002;2024-01-25T11:56:31;48.12;38.16;76.62;;
186;Laerm;55473;48.800;9.002;2024-01-25T11:58:58;48.06;38.25;71.35;;
186;Laerm;55473;48.800;9.002;2024-01-25T12:01:25;47.73;39.90;67.98;;
186;Laerm;55473;48.800;9.002;2024-01-25T12:03:51;49.38;39.83;71.54;;
186;Laerm;55473;48.800;9.002;2024-01-25T12:06:18;50.30;40.21;61.01;;
186;Laerm;55473;48.800;9.002;2024-01-25T12:08:45;49.56;39.85;66.11;;
186;Laerm;55473;48.800;9.002;2024-01-25T12:11:11;50.70;39.62;67.18;;
186;Laerm;55473;48.800;9.002;2024-01-25T12:13:45;46.02;39.64;57.04;;
186;Laerm;55473;48.800;9.002;2024-01-25T12:16:12;44.37;38.90;57.49;;
186;Laerm;55473;48.800;9.002;2024-01-25T12:18:41;47.20;37.32;70.41;;
186;Laerm;55473;48.800;9.002;2024-01-25T12:21:07;47.01;37.99;64.06;;
186;Laerm;55473;48.800;9.002;2024-01-25T12:23:40;46.64;38.21;65.77;;
186;Laerm;55473;48.800;9.002;2024-01-25T12:26:09;46.48;37.48;64.50;;
186;Laerm;55473;48.800;9.002;2024-01-25T12:28:36;45.54;38.51;66.89;;
186;Laerm;55473;48.800;9.002;2024-01-25T12:31:04;46.93;37.69;67.67;;
186;Laerm;55473;48.800;9.002;2024-01-25T12:33:33;48.88;38.75;68.22;;
186;Laerm;55473;48.800;9.002;2024-01-25T12:36:01;45.03;39.24;64.79;;
186;Laerm;55473;48.800;9.002;2024-01-25T12:38:27;45.50;37.55;61.41;;
186;Laerm;55473;48.800;9.002;2024-01-25T12:40:54;44.17;38.06;61.37;;
186;Laerm;55473;48.800;9.002;2024-01-25T12:43:20;47.23;39.12;60.37;;
186;Laerm;55473;48.800;9.002;2024-01-25T12:45:48;48.01;38.36;63.35;;
186;Laerm;55473;48.800;9.002;2024-01-25T12:48:15;46.13;39.55;62.72;;
186;Laerm;55473;48.800;9.002;2024-01-25T12:50:41;43.58;38.29;59.18;;
186;Laerm;55473;48.800;9.002;2024-01-25T12:53:10;44.61;37.62;60.31;;
186;Laerm;55473;48.800;9.002;2024-01-25T12:55:38;42.72;38.54;55.77;;
186;Laerm;55473;48.800;9.002;2024-01-25T12:58:04;43.65;37.50;55.81;;
186;Laerm;55473;48.800;9.002;2024-01-25T13:00:30;46.61;38.33;59.91;;
186;Laerm;55473;48.800;9.002;2024-01-25T13:02:56;48.63;38.67;61.41;;
186;Laerm;55473;48.800;9.002;2024-01-25T13:05:23;47.22;37.30;67.02;;
186;Laerm;55473;48.800;9.002;2024-01-25T13:07:49;48.57;37.92;74.74;;
186;Laerm;55473;48.800;9.002;2024-01-25T13:10:15;43.24;37.13;56.03;;
186;Laerm;55473;48.800;9.002;2024-01-25T13:12:41;45.45;38.26;66.55;;
186;Laerm;55473;48.800;9.002;2024-01-25T13:15:07;43.21;38.57;52.31;;
186;Laerm;55473;48.800;9.002;2024-01-25T13:17:37;43.56;38.48;59.96;;
186;Laerm;55473;48.800;9.002;2024-01-25T13:20:06;43.83;39.38;59.21;;
186;Laerm;55473;48.800;9.002;2024-01-25T13:22:35;43.96;38.52;60.75;;
186;Laerm;55473;48.800;9.002;2024-01-25T13:25:03;42.84;36.96;54.99;;
186;Laerm;55473;48.800;9.002;2024-01-25T13:27:29;47.30;38.21;65.67;;
186;Laerm;55473;48.800;9.002;2024-01-25T13:29:55;43.61;37.23;54.44;;
186;Laerm;55473;48.800;9.002;2024-01-25T13:32:22;46.99;39.17;63.14;;
186;Laerm;55473;48.800;9.002;2024-01-25T13:34:49;49.72;38.84;66.84;;
186;Laerm;55473;48.800;9.002;2024-01-25T13:37:15;49.05;38.79;75.20;;
186;Laerm;55473;48.800;9.002;2024-01-25T13:39:40;46.98;37.80;69.46;;
186;Laerm;55473;48.800;9.002;2024-01-25T13:42:06;53.62;38.83;82.64;;
186;Laerm;55473;48.800;9.002;2024-01-25T13:44:32;45.73;37.37;67.58;;
186;Laerm;55473;48.800;9.002;2024-01-25T13:46:57;44.95;39.30;63.06;;
186;Laerm;55473;48.800;9.002;2024-01-25T13:49:24;46.12;39.59;66.83;;
186;Laerm;55473;48.800;9.002;2024-01-25T13:51:50;48.61;38.16;75.17;;
186;Laerm;55473;48.800;9.002;2024-01-25T13:54:16;50.15;37.48;68.30;;
186;Laerm;55473;48.800;9.002;2024-01-25T13:56:42;43.85;38.52;62.85;;
186;Laerm;55473;48.800;9.002;2024-01-25T13:59:08;47.64;38.93;67.35;;
186;Laerm;55473;48.800;9.002;2024-01-25T14:01:33;47.84;39.59;64.97;;
186;Laerm;55473;48.800;9.002;2024-01-25T14:03:59;50.57;40.57;63.66;;
186;Laerm;55473;48.800;9.002;2024-01-25T14:06:25;49.57;39.73;70.08;;
186;Laerm;55473;48.800;9.002;2024-01-25T14:08:51;43.19;38.46;55.51;;